Data Viewer
| City | State | Eastern Time | Source | Daily Temp Max | Daily Temp Min | Daily Dew Point Max | Daily Dew Point Min | Daily RH Max | Daily Min RH | Daily BP Max | Daily BP Min | Daily Precip | Daily Wind Max | Daily Wind Max Dir |
|---|---|---|---|---|---|---|---|---|---|---|---|---|---|---|
| Sicklerville | NJ | 2026-04-05 | Mesonet | 74 | 47 | 65 | 35 | 100 | 58 | 30.08 | 29.76 | 0.29 | 23 | WSW |
| Sicklerville | NJ | 2026-04-21 | Mesonet | 58 | 25 | 35 | 17 | 89 | 21 | 30.41 | 30.20 | 0.00 | 12 | N |
| Sicklerville | NJ | 2026-05-04 | Mesonet | 76 | 42 | 51 | 34 | 87 | 26 | 29.96 | 29.81 | 0.00 | 15 | WSW |
| Sicklerville | NJ | 2026-05-03 | Mesonet | 63 | 41 | 37 | 26 | 82 | 27 | 29.94 | 29.82 | 0.00 | 16 | N |
| Sicklerville | NJ | 2026-05-02 | Mesonet | 64 | 46 | 48 | 31 | 93 | 32 | 29.90 | 29.81 | 0.00 | 15 | NNE |
| Sicklerville | NJ | 2026-05-01 | Mesonet | 68 | 40 | 45 | 34 | 98 | 32 | 29.95 | 29.84 | 0.00 | 12 | SW |
| Sicklerville | NJ | 2026-04-30 | Mesonet | 68 | 48 | 54 | 44 | 100 | 47 | 29.85 | 29.71 | 0.12 | 15 | SE |
| Sicklerville | NJ | 2026-04-29 | Mesonet | 67 | 48 | 48 | 38 | 99 | 43 | 30.05 | 29.76 | 0.65 | 16 | E |
| Sicklerville | NJ | 2026-04-28 | Mesonet | 66 | 35 | 45 | 34 | 98 | 38 | 30.23 | 30.02 | 0.00 | 10 | W |
| Sicklerville | NJ | 2026-04-27 | Mesonet | 72 | 35 | 49 | 35 | 100 | 34 | 30.25 | 30.15 | 0.00 | 16 | ESE |
| Sicklerville | NJ | 2026-04-26 | Mesonet | 55 | 39 | 45 | 38 | 98 | 64 | 30.17 | 29.95 | 0.13 | 18 | ENE |
| Sicklerville | NJ | 2026-04-25 | Mesonet | 53 | 43 | 46 | 38 | 98 | 62 | 29.98 | 29.87 | 0.51 | 20 | E |
| Sicklerville | NJ | 2026-04-24 | Mesonet | 80 | 47 | 49 | 35 | 89 | 27 | 29.88 | 29.74 | 0.00 | 19 | SE |
| Sicklerville | NJ | 2026-04-23 | Mesonet | 80 | 42 | 52 | 42 | 100 | 29 | 29.97 | 29.81 | 0.00 | 13 | N |
| Sicklerville | NJ | 2026-04-22 | Mesonet | 64 | 45 | 52 | 35 | 97 | 60 | 30.21 | 29.92 | 0.00 | 15 | SE |
| Sicklerville | NJ | 2026-04-20 | Mesonet | 56 | 30 | 42 | 19 | 100 | 32 | 30.32 | 30.08 | 0.01 | 18 | WNW |
| Sicklerville | NJ | 2026-04-06 | Mesonet | 60 | 39 | 41 | 26 | 70 | 31 | 30.09 | 29.94 | 0.00 | 22 | WNW |
| Sicklerville | NJ | 2026-04-19 | Mesonet | 53 | 35 | 53 | 34 | 100 | 56 | 30.09 | 29.73 | 0.07 | 20 | NNE |
| Sicklerville | NJ | 2026-04-18 | Mesonet | 74 | 50 | 59 | 49 | 100 | 52 | 30.05 | 29.86 | 0.00 | 19 | SE |
| Sicklerville | NJ | 2026-04-17 | Mesonet | 84 | 63 | 61 | 53 | 80 | 36 | 29.95 | 29.73 | 0.00 | 16 | NNW |
| Sicklerville | NJ | 2026-04-16 | Mesonet | 94 | 61 | 65 | 56 | 89 | 31 | 29.92 | 29.73 | 0.00 | 14 | W |
| Sicklerville | NJ | 2026-04-15 | Mesonet | 92 | 60 | 65 | 58 | 95 | 36 | 29.98 | 29.85 | 0.00 | 18 | WSW |
| Sicklerville | NJ | 2026-04-14 | Mesonet | 90 | 56 | 62 | 52 | 85 | 35 | 30.04 | 29.86 | 0.00 | 16 | SW |
| Sicklerville | NJ | 2026-04-13 | Mesonet | 81 | 46 | 61 | 41 | 95 | 43 | 30.28 | 29.96 | 0.00 | 25 | SSW |
| Sicklerville | NJ | 2026-04-12 | Mesonet | 67 | 34 | 42 | 30 | 86 | 32 | 30.51 | 30.28 | 0.00 | 20 | SE |
| Sicklerville | NJ | 2026-04-11 | Mesonet | 68 | 42 | 50 | 30 | 95 | 26 | 30.36 | 30.09 | 0.00 | 21 | NNE |
| Sicklerville | NJ | 2026-04-10 | Mesonet | 73 | 37 | 48 | 35 | 97 | 33 | 30.43 | 30.11 | 0.00 | 12 | S |
| Sicklerville | NJ | 2026-04-09 | Mesonet | 61 | 25 | 40 | 23 | 98 | 37 | 30.60 | 30.42 | 0.00 | 16 | E |
| Sicklerville | NJ | 2026-04-08 | Mesonet | 54 | 28 | 30 | 16 | 89 | 26 | 30.61 | 30.46 | 0.00 | 17 | NNE |
| Sicklerville | NJ | 2026-04-07 | Mesonet | 58 | 37 | 41 | 13 | 87 | 21 | 30.46 | 30.05 | 0.00 | 20 | N |
| Sicklerville | NJ | 2026-05-05 | Mesonet | 77 | 58 | 56 | 50 | 83 | 45 | 29.88 | 29.83 | 0.00 | 13 | WSW |
data collection created in 0.019029855728149 (queried in 0.011420) rendered in: 6.7949295043945E-5

